Time;durP1;ratioP1;P1;durP2;ratioP2;P2;SDS_P1;SDS_P2;PMS_P1;PMS_P2;Temp;Humidity;BMP_temperature;BMP_pressure;BME280_temperature;BME280_humidity;BME280_pressure;Samples;Min_cycle;Max_cycle;Signal;HPM_P1;HPM_P2
2021/07/15 00:00:35;;;;;;;;;;;17.30;77.20;;;;;;4862061;29;20419;-67
2021/07/15 00:03:06;;;;;;;;;;;17.40;77.40;;;;;;4859432;29;19928;-67
2021/07/15 00:05:33;;;;;;;;;;;17.30;77.40;;;;;;4861487;29;19999;-67
2021/07/15 00:08:00;;;;;;;;;;;17.40;77.60;;;;;;4843991;29;20444;-67
2021/07/15 00:10:36;;;;;;;;;;;17.30;77.60;;;;;;4861717;29;19924;-67
2021/07/15 00:13:03;;;;;;;;;;;17.30;77.80;;;;;;4862067;29;19974;-67
2021/07/15 00:15:31;;;;;;;;;;;17.30;77.80;;;;;;4863930;29;20308;-67
2021/07/15 00:17:57;;;;;;;;;;;17.30;78.10;;;;;;4861633;29;19946;-67
2021/07/15 00:20:24;;;;;;;;;;;17.20;78.10;;;;;;4861788;29;20048;-67
2021/07/15 00:22:50;;;;;;;;;;;17.20;78.40;;;;;;4861572;29;20019;-67
2021/07/15 00:25:18;;;;;;;;;;;17.20;78.70;;;;;;4861335;29;20023;-67
2021/07/15 00:27:44;;;;;;;;;;;17.20;78.90;;;;;;4861145;29;19924;-67
2021/07/15 00:30:11;;;;;;;;;;;17.10;78.90;;;;;;4861603;29;19935;-67
2021/07/15 00:32:37;;;;;;;;;;;17.10;79.20;;;;;;4860988;29;20380;-67
2021/07/15 00:35:05;;;;;;;;;;;17.00;79.40;;;;;;4861172;29;19928;-67
2021/07/15 00:37:31;;;;;;;;;;;17.00;79.60;;;;;;4861256;29;19988;-67
2021/07/15 00:39:57;;;;;;;;;;;17.00;79.60;;;;;;4861433;29;19972;-67
2021/07/15 00:42:23;;;;;;;;;;;17.00;79.80;;;;;;4861175;29;19928;-67
2021/07/15 00:44:49;;;;;;;;;;;17.00;79.90;;;;;;4860958;29;19981;-67
2021/07/15 00:47:16;;;;;;;;;;;17.00;79.90;;;;;;4860769;29;19924;-67
2021/07/15 00:49:42;;;;;;;;;;;17.00;80.00;;;;;;4861143;29;19924;-67
2021/07/15 00:52:11;;;;;;;;;;;17.00;80.00;;;;;;4861050;29;20011;-67
2021/07/15 00:54:39;;;;;;;;;;;17.00;80.10;;;;;;4860667;29;20400;-67
2021/07/15 00:57:06;;;;;;;;;;;17.00;80.00;;;;;;4861131;29;19924;-67
2021/07/15 00:59:32;;;;;;;;;;;17.00;80.10;;;;;;4843920;29;19924;-67
2021/07/15 01:01:58;;;;;;;;;;;17.00;80.10;;;;;;4860854;29;20424;-67
2021/07/15 01:04:25;;;;;;;;;;;17.00;80.00;;;;;;4860642;29;19931;-67
2021/07/15 01:06:53;;;;;;;;;;;17.00;80.00;;;;;;4860886;29;20054;-67
2021/07/15 01:09:20;;;;;;;;;;;17.00;80.00;;;;;;4860606;29;19928;-67
2021/07/15 01:11:50;;;;;;;;;;;17.00;80.00;;;;;;4860742;29;19999;-67
2021/07/15 01:14:32;;;;;;;;;;;17.00;80.00;;;;;;4860727;29;19930;-69
2021/07/15 01:17:01;;;;;;;;;;;17.00;80.00;;;;;;4863755;29;19924;-69
2021/07/15 01:19:34;;;;;;;;;;;17.00;80.10;;;;;;4860157;29;19927;-69
2021/07/15 01:22:11;;;;;;;;;;;16.90;80.10;;;;;;4860206;29;19924;-69
2021/07/15 01:24:56;;;;;;;;;;;16.90;80.10;;;;;;4860045;29;19928;-69
2021/07/15 01:27:41;;;;;;;;;;;16.90;80.10;;;;;;4859697;29;19947;-69
2021/07/15 01:30:19;;;;;;;;;;;16.90;80.20;;;;;;4858364;29;19924;-69
2021/07/15 01:32:45;;;;;;;;;;;16.90;80.10;;;;;;4860380;29;19979;-69
2021/07/15 01:35:13;;;;;;;;;;;16.90;80.10;;;;;;4860240;29;19931;-69
2021/07/15 01:37:41;;;;;;;;;;;16.90;80.10;;;;;;4860302;29;19963;-69
2021/07/15 01:40:09;;;;;;;;;;;16.90;80.10;;;;;;4860252;29;20590;-69
2021/07/15 01:42:37;;;;;;;;;;;16.90;80.10;;;;;;4859606;29;19924;-69
2021/07/15 01:45:04;;;;;;;;;;;16.90;80.00;;;;;;4860053;29;20027;-69
2021/07/15 01:47:30;;;;;;;;;;;16.90;80.00;;;;;;4859767;29;19931;-68
2021/07/15 01:49:58;;;;;;;;;;;16.90;80.00;;;;;;4858201;29;20300;-69
2021/07/15 01:52:25;;;;;;;;;;;16.80;80.00;;;;;;4860362;29;19924;-69
2021/07/15 01:54:53;;;;;;;;;;;16.90;80.10;;;;;;4859914;29;20057;-69
2021/07/15 01:57:19;;;;;;;;;;;16.80;80.20;;;;;;4860123;29;19995;-68
2021/07/15 01:59:46;;;;;;;;;;;16.80;80.30;;;;;;4859501;29;19928;-69
2021/07/15 02:02:13;;;;;;;;;;;16.80;80.30;;;;;;4860248;29;19924;-69
2021/07/15 02:04:41;;;;;;;;;;;16.70;80.40;;;;;;4859474;29;19980;-69
2021/07/15 02:07:08;;;;;;;;;;;16.70;80.60;;;;;;4860023;29;20031;-69
2021/07/15 02:09:36;;;;;;;;;;;16.70;80.70;;;;;;4856936;29;19979;-69
2021/07/15 02:12:02;;;;;;;;;;;16.70;80.70;;;;;;4859584;29;20064;-69
2021/07/15 02:14:29;;;;;;;;;;;16.60;81.50;;;;;;4859292;29;19940;-69
2021/07/15 02:16:58;;;;;;;;;;;16.60;80.70;;;;;;4862692;29;19939;-69
2021/07/15 02:19:25;;;;;;;;;;;16.60;80.90;;;;;;4859856;29;19928;-68
2021/07/15 02:21:51;;;;;;;;;;;16.60;81.00;;;;;;4859612;29;19931;-69
2021/07/15 02:24:19;;;;;;;;;;;16.60;81.10;;;;;;4859970;29;19931;-69
2021/07/15 02:26:47;;;;;;;;;;;16.50;81.10;;;;;;4858900;29;20015;-69
2021/07/15 02:29:14;;;;;;;;;;;16.60;81.40;;;;;;4860622;29;20397;-69
2021/07/15 02:31:43;;;;;;;;;;;16.50;81.50;;;;;;4863724;29;20411;-69
2021/07/15 02:34:20;;;;;;;;;;;16.50;81.50;;;;;;4863149;29;19947;-69
2021/07/15 02:36:47;;;;;;;;;;;16.50;81.50;;;;;;4863082;29;20043;-68
2021/07/15 02:39:13;;;;;;;;;;;16.50;81.60;;;;;;4862912;29;19985;-69
2021/07/15 02:41:39;;;;;;;;;;;16.50;81.60;;;;;;4863208;29;19931;-69
2021/07/15 02:44:06;;;;;;;;;;;16.50;81.50;;;;;;4863113;29;19924;-69
2021/07/15 02:46:32;;;;;;;;;;;16.40;81.20;;;;;;4863307;29;19924;-69
2021/07/15 02:48:59;;;;;;;;;;;16.40;81.20;;;;;;4863130;29;19980;-69
2021/07/15 02:51:25;;;;;;;;;;;16.40;81.10;;;;;;4863066;29;19971;-69
2021/07/15 02:53:51;;;;;;;;;;;16.40;81.10;;;;;;4863229;29;20007;-69
2021/07/15 02:56:31;;;;;;;;;;;16.40;81.20;;;;;;4862816;29;20014;-69
2021/07/15 02:59:01;;;;;;;;;;;16.40;81.00;;;;;;4863120;29;19928;-69
2021/07/15 03:01:29;;;;;;;;;;;16.30;81.10;;;;;;4862762;29;20508;-69
2021/07/15 03:04:19;;;;;;;;;;;16.30;81.20;;;;;;4862922;29;19924;-69
2021/07/15 03:06:45;;;;;;;;;;;16.30;81.20;;;;;;4852985;29;20396;-69
2021/07/15 03:09:21;;;;;;;;;;;16.30;81.30;;;;;;4863323;29;19924;-69
2021/07/15 03:12:03;;;;;;;;;;;16.30;81.40;;;;;;4861436;29;20443;-69
2021/07/15 03:14:31;;;;;;;;;;;16.30;81.60;;;;;;4862438;29;20072;-69
2021/07/15 03:16:58;;;;;;;;;;;16.30;81.70;;;;;;4862334;29;20061;-69
2021/07/15 03:19:26;;;;;;;;;;;16.30;81.80;;;;;;4862608;29;20296;-69
2021/07/15 03:21:53;;;;;;;;;;;16.30;81.60;;;;;;4862552;29;20047;-69
2021/07/15 03:24:19;;;;;;;;;;;16.30;82.00;;;;;;4862816;29;19924;-69
2021/07/15 03:26:46;;;;;;;;;;;16.20;82.00;;;;;;4861566;29;20060;-69
2021/07/15 03:29:13;;;;;;;;;;;16.20;82.30;;;;;;4862579;29;20349;-69
2021/07/15 03:31:39;;;;;;;;;;;16.20;82.30;;;;;;4862523;29;20452;-69
2021/07/15 03:34:05;;;;;;;;;;;16.20;82.60;;;;;;4862376;29;19924;-69
2021/07/15 03:36:32;;;;;;;;;;;16.20;82.60;;;;;;4861060;29;19924;-69
2021/07/15 03:38:59;;;;;;;;;;;16.20;82.50;;;;;;4862429;29;20060;-68
2021/07/15 03:41:25;;;;;;;;;;;16.20;82.50;;;;;;4861630;29;20340;-69
2021/07/15 03:43:51;;;;;;;;;;;16.20;82.70;;;;;;4861932;29;20418;-69
2021/07/15 03:46:19;;;;;;;;;;;16.10;82.70;;;;;;4861997;29;20047;-69
2021/07/15 03:48:46;;;;;;;;;;;16.20;82.60;;;;;;4861717;29;19967;-68
2021/07/15 03:51:13;;;;;;;;;;;16.10;82.70;;;;;;4862400;29;19930;-69
2021/07/15 03:53:41;;;;;;;;;;;16.10;82.90;;;;;;4861978;29;20064;-69
2021/07/15 03:56:09;;;;;;;;;;;16.10;83.00;;;;;;4862216;29;19936;-69
2021/07/15 03:58:37;;;;;;;;;;;16.10;82.90;;;;;;4862147;29;20388;-68
2021/07/15 04:01:04;;;;;;;;;;;16.10;83.20;;;;;;4861995;29;20384;-68
2021/07/15 04:03:32;;;;;;;;;;;16.20;83.30;;;;;;4861590;29;20064;-69
2021/07/15 04:06:00;;;;;;;;;;;16.20;83.20;;;;;;4861130;29;19924;-69
2021/07/15 04:08:27;;;;;;;;;;;16.20;83.30;;;;;;4861828;29;19931;-69
2021/07/15 04:10:54;;;;;;;;;;;16.20;83.30;;;;;;4860382;29;19928;-69
2021/07/15 04:13:24;;;;;;;;;;;16.20;83.70;;;;;;4861468;29;19924;-69
2021/07/15 04:15:56;;;;;;;;;;;16.20;83.80;;;;;;4861137;29;20051;-69
2021/07/15 04:18:32;;;;;;;;;;;16.20;83.60;;;;;;4861618;29;19924;-69
2021/07/15 04:20:59;;;;;;;;;;;16.30;83.70;;;;;;4857302;29;20018;-69
2021/07/15 04:23:26;;;;;;;;;;;16.30;83.60;;;;;;4859002;29;20076;-69
2021/07/15 04:25:53;;;;;;;;;;;16.30;83.70;;;;;;4860940;29;19931;-68
2021/07/15 04:28:19;;;;;;;;;;;16.30;83.70;;;;;;4861625;29;19931;-68
2021/07/15 04:30:50;;;;;;;;;;;16.30;84.70;;;;;;4861509;29;19931;-67
2021/07/15 04:33:16;;;;;;;;;;;16.30;83.80;;;;;;4859628;29;20384;-69
2021/07/15 04:35:43;;;;;;;;;;;16.40;83.90;;;;;;4854694;29;19933;-69
2021/07/15 04:38:09;;;;;;;;;;;16.40;83.90;;;;;;4857093;29;20054;-68
2021/07/15 04:40:35;;;;;;;;;;;16.40;84.10;;;;;;4853562;29;19931;-69
2021/07/15 04:43:06;;;;;;;;;;;16.30;84.40;;;;;;4854181;29;19979;-69
2021/07/15 04:45:34;;;;;;;;;;;16.30;85.60;;;;;;4853554;29;19928;-69
2021/07/15 04:48:00;;;;;;;;;;;16.30;84.80;;;;;;4855297;29;19927;-69
2021/07/15 04:50:27;;;;;;;;;;;16.30;84.70;;;;;;4860669;29;20349;-69
2021/07/15 04:53:14;;;;;;;;;;;16.30;84.60;;;;;;4853059;29;19928;-69
2021/07/15 04:55:40;;;;;;;;;;;16.30;84.60;;;;;;4851416;29;20027;-69
2021/07/15 04:58:07;;;;;;;;;;;16.30;84.20;;;;;;4850055;29;20387;-69
2021/07/15 05:00:34;;;;;;;;;;;16.30;84.50;;;;;;4858274;29;19931;-68
2021/07/15 05:03:09;;;;;;;;;;;16.30;84.60;;;;;;4859561;29;20360;-69
2021/07/15 05:05:35;;;;;;;;;;;16.30;84.90;;;;;;4859394;29;20420;-69
2021/07/15 05:08:01;;;;;;;;;;;16.30;84.90;;;;;;4859847;29;19963;-70
2021/07/15 05:10:28;;;;;;;;;;;16.30;85.20;;;;;;4860303;29;20380;-70
2021/07/15 05:12:54;;;;;;;;;;;16.40;85.10;;;;;;4859804;29;19928;-72
2021/07/15 05:15:20;;;;;;;;;;;16.40;85.00;;;;;;4860047;29;20022;-71
2021/07/15 05:17:46;;;;;;;;;;;16.40;85.00;;;;;;4859371;29;20397;-69
2021/07/15 05:20:13;;;;;;;;;;;16.50;84.90;;;;;;4859927;29;20010;-70
2021/07/15 05:22:39;;;;;;;;;;;16.50;84.90;;;;;;4859112;29;19999;-70
2021/07/15 05:25:06;;;;;;;;;;;16.50;84.80;;;;;;4859722;29;20019;-70
2021/07/15 05:27:32;;;;;;;;;;;16.50;84.90;;;;;;4856200;29;20373;-70
2021/07/15 05:29:59;;;;;;;;;;;16.50;84.70;;;;;;4857220;29;19969;-71
2021/07/15 05:32:25;;;;;;;;;;;16.60;84.70;;;;;;4853879;29;20028;-70
2021/07/15 05:34:51;;;;;;;;;;;16.60;84.50;;;;;;4856448;29;20285;-70
2021/07/15 05:37:17;;;;;;;;;;;16.70;84.50;;;;;;4853782;29;20369;-69
2021/07/15 05:39:44;;;;;;;;;;;16.70;84.30;;;;;;4854548;29;19924;-70
2021/07/15 05:42:11;;;;;;;;;;;16.70;84.20;;;;;;4854761;29;20417;-70
2021/07/15 05:44:38;;;;;;;;;;;16.80;84.20;;;;;;4849045;29;19968;-69
2021/07/15 05:47:04;;;;;;;;;;;16.80;84.20;;;;;;4856045;29;19935;-70
2021/07/15 05:49:30;;;;;;;;;;;16.90;84.20;;;;;;4854710;29;20018;-70
2021/07/15 05:51:56;;;;;;;;;;;16.90;84.30;;;;;;4858992;29;20392;-72
2021/07/15 05:54:25;;;;;;;;;;;16.90;84.50;;;;;;4858394;29;19932;-68
2021/07/15 05:56:51;;;;;;;;;;;16.90;84.70;;;;;;4859666;29;19935;-68
2021/07/15 05:59:18;;;;;;;;;;;16.90;84.90;;;;;;4856033;29;19972;-69
2021/07/15 06:01:44;;;;;;;;;;;17.00;85.00;;;;;;4854219;29;20070;-69
2021/07/15 06:04:10;;;;;;;;;;;17.10;85.00;;;;;;4850950;29;19975;-69
2021/07/15 06:06:36;;;;;;;;;;;17.10;85.10;;;;;;4830246;29;20487;-68
2021/07/15 06:09:02;;;;;;;;;;;17.10;85.10;;;;;;4852045;29;19928;-69
2021/07/15 06:11:28;;;;;;;;;;;17.10;85.30;;;;;;4856946;29;19937;-69
2021/07/15 06:13:55;;;;;;;;;;;17.10;85.40;;;;;;4856542;29;20022;-68
2021/07/15 06:16:21;;;;;;;;;;;17.10;85.70;;;;;;4854040;29;19936;-69
2021/07/15 06:18:47;;;;;;;;;;;17.10;85.70;;;;;;4856291;29;19944;-68
2021/07/15 06:21:13;;;;;;;;;;;17.20;86.00;;;;;;4856813;29;19980;-69
2021/07/15 06:23:39;;;;;;;;;;;17.20;85.70;;;;;;4856577;29;20019;-68
2021/07/15 06:26:06;;;;;;;;;;;17.30;85.20;;;;;;4856456;29;19935;-68
2021/07/15 06:28:32;;;;;;;;;;;17.30;85.10;;;;;;4856228;29;19981;-68
2021/07/15 06:30:58;;;;;;;;;;;17.30;85.00;;;;;;4856555;29;19928;-68
2021/07/15 06:33:24;;;;;;;;;;;17.30;84.70;;;;;;4855937;29;20064;-68
2021/07/15 06:35:52;;;;;;;;;;;17.30;84.70;;;;;;4856391;29;20566;-68
2021/07/15 06:38:19;;;;;;;;;;;17.40;84.90;;;;;;4855693;29;19979;-68
2021/07/15 06:40:46;;;;;;;;;;;17.40;84.80;;;;;;4856075;29;19971;-69
2021/07/15 06:43:12;;;;;;;;;;;17.50;84.70;;;;;;4856462;29;19927;-68
2021/07/15 06:45:39;;;;;;;;;;;17.50;84.40;;;;;;4856592;29;20419;-68
2021/07/15 06:48:05;;;;;;;;;;;17.50;84.10;;;;;;4855925;29;20026;-69
2021/07/15 06:50:31;;;;;;;;;;;17.60;83.70;;;;;;4856014;29;19935;-67
2021/07/15 06:52:57;;;;;;;;;;;17.60;83.40;;;;;;4855555;29;20087;-69
2021/07/15 06:55:23;;;;;;;;;;;17.60;83.50;;;;;;4855953;29;20419;-69
2021/07/15 06:57:49;;;;;;;;;;;17.70;83.20;;;;;;4855952;29;20071;-69
2021/07/15 07:00:17;;;;;;;;;;;17.70;83.20;;;;;;4854302;29;20388;-69
2021/07/15 07:02:45;;;;;;;;;;;17.70;82.80;;;;;;4855603;29;19935;-69
2021/07/15 07:05:12;;;;;;;;;;;17.70;82.70;;;;;;4854698;29;20311;-69
2021/07/15 07:07:38;;;;;;;;;;;17.70;82.80;;;;;;4856094;29;20384;-69
2021/07/15 07:10:08;;;;;;;;;;;17.70;82.80;;;;;;4855487;29;19979;-69
2021/07/15 07:12:34;;;;;;;;;;;17.80;82.80;;;;;;4856115;29;19928;-69
2021/07/15 07:15:01;;;;;;;;;;;17.80;82.70;;;;;;4856278;29;19975;-69
2021/07/15 07:17:27;;;;;;;;;;;17.80;82.80;;;;;;4856371;29;20055;-69
2021/07/15 07:19:53;;;;;;;;;;;17.80;82.90;;;;;;4859064;29;19928;-69
2021/07/15 07:22:19;;;;;;;;;;;17.90;82.80;;;;;;4857382;29;19976;-69
2021/07/15 07:24:45;;;;;;;;;;;17.90;82.00;;;;;;4842063;29;20448;-69
2021/07/15 07:27:11;;;;;;;;;;;17.90;82.10;;;;;;4858877;29;19935;-69
2021/07/15 07:29:37;;;;;;;;;;;17.90;82.10;;;;;;4858703;29;19928;-69
2021/07/15 07:32:04;;;;;;;;;;;18.00;81.90;;;;;;4858942;29;19928;-69
2021/07/15 07:34:30;;;;;;;;;;;18.00;81.80;;;;;;4855842;29;19928;-69
2021/07/15 07:36:56;;;;;;;;;;;18.00;81.80;;;;;;4858705;29;20015;-69
2021/07/15 07:39:23;;;;;;;;;;;18.00;81.60;;;;;;4858213;29;19928;-69
2021/07/15 07:41:49;;;;;;;;;;;18.10;81.50;;;;;;4858686;29;20060;-69
2021/07/15 07:44:15;;;;;;;;;;;18.20;81.30;;;;;;4858944;29;20014;-69
2021/07/15 07:46:41;;;;;;;;;;;18.20;80.80;;;;;;4858744;29;19928;-69
2021/07/15 07:49:08;;;;;;;;;;;18.30;80.70;;;;;;4858373;29;19927;-69
2021/07/15 07:51:34;;;;;;;;;;;18.30;80.70;;;;;;4858715;29;19980;-69
2021/07/15 07:54:00;;;;;;;;;;;18.30;80.50;;;;;;4858221;29;20410;-69
2021/07/15 07:56:27;;;;;;;;;;;18.50;80.60;;;;;;4858911;29;19932;-69
2021/07/15 07:58:53;;;;;;;;;;;18.60;80.00;;;;;;4857666;29;19935;-69
2021/07/15 08:01:20;;;;;;;;;;;18.80;79.90;;;;;;4858469;29;20135;-69
2021/07/15 08:03:46;;;;;;;;;;;19.00;79.20;;;;;;4858617;29;20448;-70
2021/07/15 08:06:13;;;;;;;;;;;19.10;78.00;;;;;;4854528;29;19935;-69
2021/07/15 08:08:40;;;;;;;;;;;19.20;77.10;;;;;;4855290;29;20022;-69
2021/07/15 08:11:06;;;;;;;;;;;19.20;76.60;;;;;;4858051;29;19932;-69
2021/07/15 08:13:33;;;;;;;;;;;19.40;77.00;;;;;;4858398;29;19928;-69
2021/07/15 08:15:59;;;;;;;;;;;19.50;76.10;;;;;;4857737;29;20448;-69
2021/07/15 08:18:25;;;;;;;;;;;19.60;75.30;;;;;;4858249;29;19931;-69
2021/07/15 08:20:51;;;;;;;;;;;19.60;75.40;;;;;;4858682;29;20043;-69
2021/07/15 08:23:17;;;;;;;;;;;19.70;74.90;;;;;;4857470;29;20408;-69
2021/07/15 08:25:43;;;;;;;;;;;19.90;75.00;;;;;;4854627;29;20623;-69
2021/07/15 08:28:09;;;;;;;;;;;20.20;74.30;;;;;;4829403;29;20392;-70
2021/07/15 08:30:36;;;;;;;;;;;20.50;73.10;;;;;;4858008;29;20000;-69
2021/07/15 08:33:03;;;;;;;;;;;20.80;72.80;;;;;;4858244;29;19928;-69
2021/07/15 08:35:29;;;;;;;;;;;21.00;71.50;;;;;;4857266;29;19929;-69
2021/07/15 08:37:55;;;;;;;;;;;21.30;71.10;;;;;;4856901;29;20019;-69
2021/07/15 08:40:22;;;;;;;;;;;21.50;69.10;;;;;;4858464;29;19970;-69
2021/07/15 08:42:48;;;;;;;;;;;21.60;68.10;;;;;;4858441;29;19928;-69
2021/07/15 08:45:14;;;;;;;;;;;21.70;67.70;;;;;;4857419;29;19983;-69
2021/07/15 08:47:41;;;;;;;;;;;21.80;67.90;;;;;;4857759;29;20459;-70
2021/07/15 08:50:08;;;;;;;;;;;22.00;67.10;;;;;;4856959;29;20022;-70
2021/07/15 08:52:35;;;;;;;;;;;22.10;66.50;;;;;;4857266;29;19928;-69
2021/07/15 08:56:36;;;;;;;;;;;22.30;66.10;;;;;;4857693;29;20020;-70
2021/07/15 08:57:51;;;;;;;;;;;22.40;66.20;;;;;;4849654;29;19928;-70
2021/07/15 09:00:17;;;;;;;;;;;22.60;66.10;;;;;;4857221;29;20123;-70
2021/07/15 09:02:44;;;;;;;;;;;23.00;64.40;;;;;;4857379;29;19928;-69
2021/07/15 09:05:10;;;;;;;;;;;23.20;62.20;;;;;;4849975;29;20056;-68
2021/07/15 09:07:39;;;;;;;;;;;23.30;63.00;;;;;;4855816;29;20435;-70
2021/07/15 09:10:06;;;;;;;;;;;23.50;62.70;;;;;;4856712;29;20088;-70
2021/07/15 09:12:32;;;;;;;;;;;23.90;61.40;;;;;;4857135;29;19988;-70
2021/07/15 09:15:04;;;;;;;;;;;24.20;61.10;;;;;;4857371;29;19928;-70
2021/07/15 09:17:31;;;;;;;;;;;24.50;60.00;;;;;;4856886;29;19928;-70
2021/07/15 09:19:58;;;;;;;;;;;24.90;58.90;;;;;;4856979;29;19928;-70
2021/07/15 09:22:24;;;;;;;;;;;25.30;57.20;;;;;;4854514;29;19924;-70
2021/07/15 09:24:51;;;;;;;;;;;25.50;56.50;;;;;;4857140;29;19928;-69
2021/07/15 09:27:22;;;;;;;;;;;25.70;56.20;;;;;;4846885;29;19928;-69
2021/07/15 09:30:21;;;;;;;;;;;25.70;55.70;;;;;;4840006;29;20072;-70
2021/07/15 09:32:54;;;;;;;;;;;25.50;55.70;;;;;;4781621;30;20028;-70
2021/07/15 09:35:37;;;;;;;;;;;25.40;56.00;;;;;;4781274;30;20025;-69
2021/07/15 09:38:09;;;;;;;;;;;25.40;56.00;;;;;;4781375;30;19993;-69
2021/07/15 09:40:41;;;;;;;;;;;25.20;55.00;;;;;;4780810;30;20020;-70
2021/07/15 09:43:13;;;;;;;;;;;25.00;55.50;;;;;;4788605;29;20421;-69
2021/07/15 09:45:39;;;;;;;;;;;24.80;56.60;;;;;;4781263;30;20016;-69
2021/07/15 09:48:16;;;;;;;;;;;24.80;56.80;;;;;;4780901;30;19929;-70
2021/07/15 09:50:42;;;;;;;;;;;24.90;56.70;;;;;;4781012;30;19929;-70
2021/07/15 09:53:24;;;;;;;;;;;25.10;55.90;;;;;;4781014;30;19929;-70
2021/07/15 09:56:01;;;;;;;;;;;25.10;55.00;;;;;;4780699;30;19930;-70
2021/07/15 09:58:33;;;;;;;;;;;25.20;56.50;;;;;;4780412;30;19929;-70
2021/07/15 10:01:04;;;;;;;;;;;25.60;55.80;;;;;;4781060;30;20047;-70
2021/07/15 10:03:34;;;;;;;;;;;26.00;54.20;;;;;;4780489;29;20043;-71
2021/07/15 10:06:03;;;;;;;;;;;26.20;53.20;;;;;;4780441;30;20020;-70
2021/07/15 10:08:30;;;;;;;;;;;26.40;53.30;;;;;;4815035;29;19928;-70
2021/07/15 10:11:10;;;;;;;;;;;26.60;52.30;;;;;;4856234;29;20284;-70
2021/07/15 10:13:36;;;;;;;;;;;26.70;52.20;;;;;;4856393;29;20132;-70
2021/07/15 10:16:05;;;;;;;;;;;26.70;52.10;;;;;;4855585;29;19932;-70
2021/07/15 10:18:35;;;;;;;;;;;26.70;52.50;;;;;;4855677;29;19940;-70
2021/07/15 10:21:01;;;;;;;;;;;26.50;51.50;;;;;;4856189;29;19928;-70
2021/07/15 10:23:37;;;;;;;;;;;26.10;52.50;;;;;;4853933;29;19983;-70
2021/07/15 10:26:04;;;;;;;;;;;25.90;52.90;;;;;;4854245;29;19980;-70
2021/07/15 10:28:30;;;;;;;;;;;25.40;53.60;;;;;;4853602;29;19935;-70
2021/07/15 10:31:00;;;;;;;;;;;25.20;54.90;;;;;;4854430;29;20425;-70
2021/07/15 10:33:27;;;;;;;;;;;25.10;54.90;;;;;;4851109;29;20523;-70
2021/07/15 10:35:53;;;;;;;;;;;24.90;55.60;;;;;;4853430;29;20360;-70
2021/07/15 10:38:20;;;;;;;;;;;24.70;55.90;;;;;;4854205;29;19935;-70
2021/07/15 10:40:48;;;;;;;;;;;24.50;57.10;;;;;;4855477;29;20020;-70
2021/07/15 10:43:15;;;;;;;;;;;24.50;57.50;;;;;;4855941;29;19982;-70
2021/07/15 10:45:41;;;;;;;;;;;24.50;57.60;;;;;;4855577;29;19935;-70
2021/07/15 10:48:09;;;;;;;;;;;24.60;57.40;;;;;;4854540;29;19932;-70
2021/07/15 10:50:35;;;;;;;;;;;24.50;56.80;;;;;;4855509;29;20175;-70
2021/07/15 10:53:02;;;;;;;;;;;24.50;58.60;;;;;;4859664;29;19928;-70
2021/07/15 10:55:28;;;;;;;;;;;24.50;57.00;;;;;;4858711;29;20608;-69
2021/07/15 10:57:54;;;;;;;;;;;24.50;57.70;;;;;;4855689;29;19928;-70
2021/07/15 11:00:21;;;;;;;;;;;24.50;56.40;;;;;;4858906;29;20036;-72
2021/07/15 11:03:06;;;;;;;;;;;24.50;57.30;;;;;;4859365;29;19928;-72
2021/07/15 11:05:32;;;;;;;;;;;24.60;58.10;;;;;;4858948;29;20436;-70
2021/07/15 11:07:58;;;;;;;;;;;24.60;58.40;;;;;;4861827;29;19927;-70
2021/07/15 11:10:25;;;;;;;;;;;24.60;57.40;;;;;;4865921;29;19928;-70
2021/07/15 11:12:55;;;;;;;;;;;24.40;57.40;;;;;;4858819;29;20014;-70
2021/07/15 11:15:21;;;;;;;;;;;24.30;58.00;;;;;;4859148;29;20304;-69
2021/07/15 11:17:52;;;;;;;;;;;24.10;57.30;;;;;;4859002;29;20043;-69
2021/07/15 11:20:18;;;;;;;;;;;23.90;58.40;;;;;;4858860;29;20018;-70
2021/07/15 11:22:51;;;;;;;;;;;23.90;59.80;;;;;;4858169;29;20400;-69
2021/07/15 11:25:27;;;;;;;;;;;23.90;58.30;;;;;;4858519;29;19928;-69
2021/07/15 11:27:57;;;;;;;;;;;23.80;58.10;;;;;;4858914;29;19928;-69
2021/07/15 11:30:32;;;;;;;;;;;23.80;59.30;;;;;;4858629;29;19976;-69
2021/07/15 11:33:21;;;;;;;;;;;23.80;59.20;;;;;;4859131;29;20043;-69
2021/07/15 11:35:50;;;;;;;;;;;23.90;59.70;;;;;;4858854;29;19928;-69
2021/07/15 11:38:21;;;;;;;;;;;24.00;59.90;;;;;;4857994;29;20463;-69
2021/07/15 11:40:48;;;;;;;;;;;24.00;59.30;;;;;;4846151;29;19928;-69
2021/07/15 11:43:31;;;;;;;;;;;24.00;60.00;;;;;;4858832;29;19928;-71
2021/07/15 11:46:01;;;;;;;;;;;24.00;58.90;;;;;;4846701;29;19932;-69
2021/07/15 11:48:46;;;;;;;;;;;24.10;60.50;;;;;;4858380;29;19963;-69
2021/07/15 11:51:19;;;;;;;;;;;24.30;60.00;;;;;;4847968;29;19944;-69
2021/07/15 11:54:05;;;;;;;;;;;24.30;58.20;;;;;;4858485;29;19983;-69
2021/07/15 11:56:34;;;;;;;;;;;24.30;59.10;;;;;;4858201;29;19928;-69
2021/07/15 11:59:00;;;;;;;;;;;24.30;57.90;;;;;;4858001;29;20432;-68
2021/07/15 12:01:33;;;;;;;;;;;24.20;58.60;;;;;;4858306;29;19932;-69
2021/07/15 12:03:59;;;;;;;;;;;24.20;60.30;;;;;;4857763;29;19978;-68
2021/07/15 12:06:25;;;;;;;;;;;24.20;59.60;;;;;;4858285;29;20388;-69
2021/07/15 12:08:52;;;;;;;;;;;24.20;58.20;;;;;;4858023;29;19928;-69
2021/07/15 12:11:21;;;;;;;;;;;24.00;58.00;;;;;;4857864;29;20014;-69
2021/07/15 12:13:51;;;;;;;;;;;23.90;58.60;;;;;;4858470;29;20380;-69
2021/07/15 12:16:19;;;;;;;;;;;23.80;59.80;;;;;;4857942;29;19928;-69
2021/07/15 12:18:45;;;;;;;;;;;23.80;60.30;;;;;;4857466;29;19932;-69
2021/07/15 12:21:12;;;;;;;;;;;23.70;59.40;;;;;;4857988;29;20014;-68
2021/07/15 12:23:40;;;;;;;;;;;23.60;59.10;;;;;;4858171;29;20123;-69
2021/07/15 12:26:08;;;;;;;;;;;23.60;60.00;;;;;;4858046;29;20064;-69
2021/07/15 12:28:34;;;;;;;;;;;23.70;58.80;;;;;;4857825;29;19935;-68
2021/07/15 12:31:02;;;;;;;;;;;23.80;59.20;;;;;;4858148;29;19928;-69
2021/07/15 12:33:35;;;;;;;;;;;23.80;58.60;;;;;;4857446;29;19980;-69
2021/07/15 12:36:22;;;;;;;;;;;23.70;58.50;;;;;;4857294;29;19982;-69
2021/07/15 12:38:49;;;;;;;;;;;23.60;58.50;;;;;;4856871;29;20509;-68
2021/07/15 12:41:21;;;;;;;;;;;23.50;59.10;;;;;;4857710;29;20018;-69
2021/07/15 12:43:48;;;;;;;;;;;23.60;60.70;;;;;;4858018;29;19932;-69
2021/07/15 12:46:16;;;;;;;;;;;23.60;60.00;;;;;;4857880;29;19928;-68
2021/07/15 12:48:47;;;;;;;;;;;23.60;58.90;;;;;;4857194;29;19957;-69
2021/07/15 12:51:13;;;;;;;;;;;23.60;59.50;;;;;;4857287;29;20400;-69
2021/07/15 12:53:44;;;;;;;;;;;23.70;60.90;;;;;;4856766;29;19928;-69
2021/07/15 12:56:11;;;;;;;;;;;23.80;59.10;;;;;;4857314;29;19928;-69
2021/07/15 12:58:38;;;;;;;;;;;23.90;58.30;;;;;;4857530;29;20004;-69
2021/07/15 13:01:05;;;;;;;;;;;24.00;58.10;;;;;;4857330;29;20357;-69
2021/07/15 13:03:31;;;;;;;;;;;24.00;58.20;;;;;;4856491;29;19928;-69
2021/07/15 13:05:58;;;;;;;;;;;24.00;58.30;;;;;;4856434;29;20502;-69
2021/07/15 13:08:43;;;;;;;;;;;24.00;57.70;;;;;;4857153;29;19928;-69
2021/07/15 13:14:14;;;;;;;;;;;24.10;57.40;;;;;;4856881;29;19928;-69
2021/07/15 13:16:49;;;;;;;;;;;24.10;56.40;;;;;;4847243;29;19928;-67
2021/07/15 13:19:16;;;;;;;;;;;24.00;55.90;;;;;;4856692;29;19928;-69
2021/07/15 13:21:43;;;;;;;;;;;23.90;56.20;;;;;;4857250;29;20072;-69
2021/07/15 13:24:10;;;;;;;;;;;23.80;57.00;;;;;;4856685;29;20014;-69
2021/07/15 13:26:46;;;;;;;;;;;23.80;58.60;;;;;;4857304;29;20035;-69
2021/07/15 13:29:12;;;;;;;;;;;23.90;57.50;;;;;;4857414;29;19950;-69
2021/07/15 13:31:39;;;;;;;;;;;24.00;56.80;;;;;;4857375;29;20021;-69
2021/07/15 13:34:07;;;;;;;;;;;24.00;56.10;;;;;;4857510;29;19928;-69
2021/07/15 13:36:33;;;;;;;;;;;24.00;56.10;;;;;;4857345;29;20063;-69
2021/07/15 13:38:59;;;;;;;;;;;24.00;57.10;;;;;;4857022;29;20108;-69
2021/07/15 13:41:27;;;;;;;;;;;24.00;57.80;;;;;;4857066;29;19935;-69
2021/07/15 13:44:07;;;;;;;;;;;24.00;56.20;;;;;;4856874;29;19983;-69
2021/07/15 13:46:34;;;;;;;;;;;24.00;57.60;;;;;;4857173;29;19935;-69
2021/07/15 13:49:00;;;;;;;;;;;24.10;57.00;;;;;;4857027;29;19928;-69
2021/07/15 13:51:26;;;;;;;;;;;24.10;56.70;;;;;;4839999;29;19935;-69
2021/07/15 13:53:53;;;;;;;;;;;24.10;56.90;;;;;;4857339;29;19960;-69
2021/07/15 13:56:20;;;;;;;;;;;24.10;57.00;;;;;;4848069;29;20317;-69
2021/07/15 13:58:47;;;;;;;;;;;24.20;57.10;;;;;;4856392;29;20018;-69
2021/07/15 14:01:23;;;;;;;;;;;24.20;55.70;;;;;;4855720;29;19928;-69
2021/07/15 14:03:50;;;;;;;;;;;24.10;56.80;;;;;;4856181;29;20057;-68
2021/07/15 14:06:16;;;;;;;;;;;24.10;57.90;;;;;;4856687;29;20393;-69
2021/07/15 14:08:42;;;;;;;;;;;24.20;57.40;;;;;;4860345;29;19927;-69
2021/07/15 14:11:12;;;;;;;;;;;24.20;56.10;;;;;;4858282;29;20050;-69
2021/07/15 14:13:38;;;;;;;;;;;24.20;56.60;;;;;;4856472;29;20355;-69
2021/07/15 14:16:04;;;;;;;;;;;24.10;57.10;;;;;;4856536;29;19932;-69
2021/07/15 14:18:31;;;;;;;;;;;24.00;57.30;;;;;;4856318;29;20443;-69
2021/07/15 14:20:58;;;;;;;;;;;24.00;58.10;;;;;;4856217;29;20431;-69
2021/07/15 14:23:26;;;;;;;;;;;24.00;56.90;;;;;;4856546;29;19928;-69
2021/07/15 14:25:54;;;;;;;;;;;24.00;56.80;;;;;;4857159;29;19991;-69